PWSweather.com
Personal Weather Stations
Station Observations
WISCHPK61
Green Bay Schmitt Park, Green Bay, WI 54311

Green Bay Schmitt ParkGreen Bay, WI 54311

Lat: 44.514277, Lon: -87.935067

Elevation: 735

Station Type: Acu Rite Pro Weather Center model 02032C

http://greenbayweathercam.com

Latest ConditionsUpdated 10:00:00 PM CDT Tuesday, Mar 26, 2019
Currently Today's Max Today's Min Today's Average
Temperature 33.3°F0.7°C 56.7°F13.7°C 21.6°F-5.8°C 36.5°F2.5°C
Dew Point 22.8°F-5.1°C 55.6°F13.1°C 16.1°F-8.8°C 32.8°F0.4°C
Winds Calm Calm 1.2 mph -1.9 kmh - - 0.1 mph 0.2 kmh
Wind Gusts -- 2.3 mph3.7 kmh - -
Humidity 65% 99% 49% 88%
Pressure 29.60 in1002.4 mb 29.73 in1006.8 mb 29.59 in1002.0 mb -
Hour Temp Dew Point Humidity Winds Wind Gusts Pressure Precip Precip Rate Daily Precip Total
10:00 PM 33.3°F0.7°C 22.8°F-5.1°C 65% Calm Calm -- 29.60 in1002.4 mb - 0.00 in0.0 mm 0.00 in0.0 mm
09:00 PM 34.3°F1.3°C 17.1°F-8.3°C 49% Calm Calm -- 29.60 in1002.4 mb - 0.00 in0.0 mm 0.00 in0.0 mm
08:00 PM 36.3°F2.4°C 36.0°F2.2°C 99% Calm Calm -- 29.59 in1002.0 mb - 0.00 in0.0 mm 0.00 in0.0 mm
07:00 PM 40.8°F4.9°C 40.5°F4.7°C 99% Calm Calm -- 29.60 in1002.4 mb - 0.00 in0.0 mm 0.00 in0.0 mm
06:00 PM 45.5°F7.5°C 33.2°F0.7°C 62% Calm Calm -- 29.62 in1003.0 mb - 0.00 in0.0 mm 0.00 in0.0 mm
05:00 PM 47.2°F8.4°C 37.2°F2.9°C 68% 1.2 mph SE1.9 kmh SE 2.3 mph3.7 kmh 29.63 in1003.4 mb - 0.00 in0.0 mm 0.00 in0.0 mm
04:00 PM 49.5°F9.7°C 48.1°F8.9°C 95% Calm Calm -- 29.65 in1004.1 mb - 0.00 in0.0 mm 0.00 in0.0 mm
03:00 PM 52.5°F11.4°C 50.5°F10.3°C 93% Calm Calm -- 29.66 in1004.4 mb - 0.00 in0.0 mm 0.00 in0.0 mm
02:00 PM 56.7°F13.7°C 55.6°F13.1°C 96% 1.2 mph W1.9 kmh W -- 29.68 in1005.1 mb - 0.00 in0.0 mm 0.00 in0.0 mm
01:00 PM 55.0°F12.8°C 54.7°F12.6°C 99% Calm Calm -- 29.71 in1006.1 mb - 0.00 in0.0 mm 0.00 in0.0 mm
12:00 PM 50.7°F10.4°C 50.4°F10.2°C 99% Calm Calm -- 29.72 in1006.4 mb - 0.00 in0.0 mm 0.00 in0.0 mm
11:00 AM 46.6°F8.1°C 38.4°F3.6°C 73% Calm Calm 2.3 mph3.7 kmh 29.73 in1006.8 mb - 0.00 in0.0 mm 0.00 in0.0 mm
10:00 AM 41.4°F5.2°C 41.1°F5.1°C 99% Calm Calm -- 29.73 in1006.8 mb - 0.00 in0.0 mm 0.00 in0.0 mm
09:00 AM 33.1°F0.6°C 32.9°F0.5°C 99% Calm Calm -- 29.73 in1006.8 mb - 0.00 in0.0 mm 0.00 in0.0 mm
08:00 AM 25.0°F-3.9°C 24.8°F-4.0°C 99% Calm Calm -- 29.71 in1006.1 mb - 0.00 in0.0 mm 0.00 in0.0 mm
07:00 AM 21.6°F-5.8°C 16.4°F-8.7°C 80% Calm Calm -- 29.70 in1005.8 mb - 0.00 in0.0 mm 0.00 in0.0 mm
06:00 AM 22.3°F-5.4°C 22.1°F-5.5°C 99% Calm Calm -- 29.69 in1005.4 mb - 0.00 in0.0 mm 0.00 in0.0 mm
05:00 AM 23.0°F-5.0°C 22.8°F-5.1°C 99% Calm Calm -- 29.68 in1005.1 mb - 0.00 in0.0 mm 0.00 in0.0 mm
04:00 AM 23.2°F-4.9°C 16.1°F-8.8°C 74% Calm Calm -- 29.68 in1005.1 mb - 0.00 in0.0 mm 0.00 in0.0 mm
03:00 AM 23.8°F-4.6°C 23.6°F-4.7°C 99% Calm Calm -- 29.67 in1004.7 mb - 0.00 in0.0 mm 0.00 in0.0 mm
02:00 AM 25.0°F-3.9°C 18.2°F-7.7°C 75% Calm Calm -- 29.66 in1004.4 mb - 0.00 in0.0 mm 0.00 in0.0 mm
01:00 AM 26.1°F-3.3°C 25.8°F-3.4°C 99% Calm Calm -- 29.66 in1004.4 mb - 0.00 in0.0 mm 0.00 in0.0 mm
12:00 AM 27.1°F-2.7°C 26.9°F-2.8°C 99% Calm Calm -- 29.64 in1003.7 mb - 0.00 in0.0 mm 0.00 in0.0 mm